createdAt,value
2022-11-07T00:00:43.799Z,100150.47
2022-11-07T00:03:15.727Z,100142.47
2022-11-07T00:05:43.946Z,100145.97
2022-11-07T00:08:11.815Z,100147.56
2022-11-07T00:10:39.732Z,100147.47
2022-11-07T00:13:07.663Z,100149.06
2022-11-07T00:15:35.551Z,100146.31
2022-11-07T00:18:03.466Z,100144.38
2022-11-07T00:20:32.747Z,100140.94
2022-11-07T00:23:00.763Z,100149.72
2022-11-07T00:25:28.622Z,100150.66
2022-11-07T00:27:56.471Z,100119.06
2022-11-07T00:30:24.796Z,100151.66
2022-11-07T00:32:56.391Z,100149.91
2022-11-07T00:35:27.857Z,100154.31
2022-11-07T00:37:57.159Z,100151.41
2022-11-07T00:40:25.048Z,100153.03
2022-11-07T00:42:52.919Z,100152.94
2022-11-07T00:45:20.866Z,100155.38
2022-11-07T00:47:48.715Z,100154.31
2022-11-07T00:50:16.643Z,100147.03
2022-11-07T00:52:44.523Z,100149.50
2022-11-07T00:55:13.797Z,100157.41
2022-11-07T00:57:41.647Z,100157.19
2022-11-07T01:00:11.109Z,100159.13
2022-11-07T01:02:39.125Z,100158.47
2022-11-07T01:05:15.386Z,100159.34
2022-11-07T01:07:43.245Z,100166.50
2022-11-07T01:10:11.128Z,100158.38
2022-11-07T01:12:40.375Z,100161.81
2022-11-07T01:15:09.150Z,100164.25
2022-11-07T01:17:37.006Z,100161.25
2022-11-07T01:20:05.573Z,100162.00
2022-11-07T01:22:33.627Z,100176.03
2022-11-07T01:25:01.475Z,100164.25
2022-11-07T01:27:29.348Z,100164.88
2022-11-07T01:29:58.597Z,100163.81
2022-11-07T01:32:26.504Z,100164.56
2022-11-07T01:34:54.384Z,100146.00
2022-11-07T01:37:22.256Z,100161.66
2022-11-07T01:39:50.134Z,100158.13
2022-11-07T01:42:18.024Z,100164.44
2022-11-07T01:44:55.420Z,100156.84
2022-11-07T01:47:25.475Z,100167.34
2022-11-07T01:49:53.508Z,100168.19
2022-11-07T01:52:22.663Z,100166.47
2022-11-07T01:54:52.243Z,100177.19
2022-11-07T01:57:21.519Z,100166.38
2022-11-07T01:59:49.576Z,100172.56
2022-11-07T02:02:17.525Z,100176.75
2022-11-07T02:04:46.900Z,100173.19
2022-11-07T02:07:16.810Z,100170.75
2022-11-07T02:09:44.778Z,100170.44
2022-11-07T02:12:12.686Z,100162.22
2022-11-07T02:14:40.567Z,100181.47
2022-11-07T02:17:08.522Z,100172.94
2022-11-07T02:19:37.222Z,100177.41
2022-11-07T02:22:10.010Z,100169.50
2022-11-07T02:24:39.389Z,100173.75
2022-11-07T02:27:08.560Z,100157.19
2022-11-07T02:29:36.667Z,100155.16
2022-11-07T02:32:04.779Z,100168.00
2022-11-07T02:34:32.707Z,100163.16
2022-11-07T02:37:00.582Z,100159.53
2022-11-07T02:39:28.447Z,100173.66
2022-11-07T02:41:57.760Z,100170.84
2022-11-07T02:44:25.611Z,100172.56
2022-11-07T02:46:53.482Z,100167.22
2022-11-07T02:49:21.383Z,100165.00
2022-11-07T02:51:49.296Z,100169.59
2022-11-07T02:54:17.191Z,100167.88
2022-11-07T02:56:45.066Z,100164.56
2022-11-07T02:59:14.326Z,100164.56
2022-11-07T03:01:42.321Z,100153.75
2022-11-07T03:04:10.299Z,100153.53
2022-11-07T03:06:38.216Z,100154.16
2022-11-07T03:09:06.085Z,100155.66
2022-11-07T03:11:33.976Z,100148.38
2022-11-07T03:14:01.842Z,100143.25
2022-11-07T03:16:31.266Z,100130.06
2022-11-07T03:18:59.150Z,100131.28
2022-11-07T03:21:27.040Z,100135.22
2022-11-07T03:23:54.903Z,100130.00
2022-11-07T03:26:22.806Z,100133.84
2022-11-07T03:28:50.775Z,100126.78
2022-11-07T03:31:18.636Z,100137.59
2022-11-07T03:33:47.850Z,100134.72
2022-11-07T03:36:15.763Z,100126.56
2022-11-07T03:38:43.664Z,100109.25
2022-11-07T03:41:17.081Z,100119.72
2022-11-07T03:43:45.559Z,100126.91
2022-11-07T03:46:13.445Z,100127.97
2022-11-07T03:48:41.317Z,100121.56
2022-11-07T03:51:10.882Z,100120.59
2022-11-07T03:53:38.779Z,100122.50
2022-11-07T03:56:07.489Z,100127.03
2022-11-07T03:58:35.437Z,100091.41
2022-11-07T04:01:03.296Z,100121.09
2022-11-07T04:03:31.314Z,100113.06
2022-11-07T04:05:59.245Z,100110.94
2022-11-07T04:08:28.530Z,100109.84
2022-11-07T04:10:56.411Z,100113.16
2022-11-07T04:13:41.869Z,100120.22
2022-11-07T04:16:23.918Z,100109.41
2022-11-07T04:18:51.808Z,100101.91
2022-11-07T04:21:19.684Z,100099.34
2022-11-07T04:23:48.992Z,100102.53
2022-11-07T04:26:34.339Z,100100.72
2022-11-07T04:29:02.220Z,100099.34
2022-11-07T04:31:30.075Z,100103.94
2022-11-07T04:33:57.958Z,100109.28
2022-11-07T04:36:25.887Z,100111.75
2022-11-07T04:38:55.113Z,100099.84
2022-11-07T04:41:23.783Z,100097.28
2022-11-07T04:43:51.987Z,100104.47
2022-11-07T04:46:20.218Z,100104.47
2022-11-07T04:48:48.131Z,100115.16
2022-11-07T04:51:16.279Z,100115.81
2022-11-07T04:53:44.150Z,100114.09
2022-11-07T04:56:13.373Z,100111.28
2022-11-07T04:58:41.264Z,100109.34
2022-11-07T05:01:09.158Z,100111.09
2022-11-07T05:03:41.516Z,100114.63
2022-11-07T05:06:11.604Z,100109.34
2022-11-07T05:08:39.467Z,100113.88
2022-11-07T05:11:07.343Z,100109.47
2022-11-07T05:13:36.659Z,100104.00
2022-11-07T05:16:04.794Z,100097.91
2022-11-07T05:18:32.694Z,100098.78
2022-11-07T05:21:00.587Z,100090.75
2022-11-07T05:23:28.587Z,100094.06
2022-11-07T05:25:56.907Z,100095.75
2022-11-07T05:28:35.234Z,100100.78
2022-11-07T05:31:06.746Z,100092.53
2022-11-07T05:33:34.708Z,100091.66
2022-11-07T05:36:20.767Z,100096.47
2022-11-07T05:38:49.664Z,100092.06
2022-11-07T05:41:18.056Z,100094.63
2022-11-07T05:43:45.985Z,100103.41
2022-11-07T05:46:15.299Z,100099.25
2022-11-07T05:48:43.171Z,100107.78
2022-11-07T05:51:11.069Z,100104.03
2022-11-07T05:53:39.004Z,100106.59
2022-11-07T05:56:07.530Z,100095.75
2022-11-07T05:58:35.454Z,100102.72
2022-11-07T06:01:03.461Z,100110.53
2022-11-07T06:03:32.856Z,100104.31
2022-11-07T06:06:00.850Z,100104.13
2022-11-07T06:08:28.776Z,100098.66
2022-11-07T06:10:56.662Z,100091.47
2022-11-07T06:13:24.548Z,100092.22
2022-11-07T06:15:52.455Z,100092.22
2022-11-07T06:18:21.458Z,100085.03
2022-11-07T06:20:50.680Z,100095.50
2022-11-07T06:23:20.073Z,100085.66
2022-11-07T06:25:48.175Z,100086.38
2022-11-07T06:28:16.086Z,100090.91
2022-11-07T06:30:43.999Z,100043.75
2022-11-07T06:33:13.235Z,100078.09
2022-11-07T06:35:41.450Z,100085.66
2022-11-07T06:38:11.406Z,100078.25
2022-11-07T06:40:39.394Z,100086.38
2022-11-07T06:43:07.860Z,100079.22
2022-11-07T06:45:35.947Z,100074.94
2022-11-07T06:48:03.838Z,100075.91
2022-11-07T06:50:31.778Z,100067.97
2022-11-07T06:53:02.888Z,100065.00
2022-11-07T06:55:32.133Z,100069.91
2022-11-07T06:58:00.737Z,100076.28
2022-11-07T07:00:28.865Z,100073.69
2022-11-07T07:02:58.846Z,100073.81
2022-11-07T07:05:27.036Z,100071.56
2022-11-07T07:07:55.193Z,100067.59
2022-11-07T07:10:24.841Z,100077.47
2022-11-07T07:12:54.214Z,100068.63
2022-11-07T07:15:22.134Z,100075.63
2022-11-07T07:17:50.004Z,100079.91
2022-11-07T07:20:17.925Z,100083.44
2022-11-07T07:22:46.759Z,100080.75
2022-11-07T07:25:17.181Z,100089.31
2022-11-07T07:27:45.024Z,100098.19
2022-11-07T07:30:15.135Z,100107.09
2022-11-07T07:32:43.037Z,100106.34
2022-11-07T07:35:10.989Z,100110.97
2022-11-07T07:37:38.910Z,100113.78
2022-11-07T07:40:07.895Z,100105.94
2022-11-07T07:42:35.815Z,100121.16
2022-11-07T07:45:03.798Z,100126.72
2022-11-07T07:47:33.105Z,100126.81
2022-11-07T07:50:01.017Z,100132.31
2022-11-07T07:52:28.888Z,100132.91
2022-11-07T07:54:57.003Z,100135.72
2022-11-07T07:57:24.916Z,100130.38
2022-11-07T07:59:52.886Z,100137.44
2022-11-07T08:02:20.982Z,100141.75
2022-11-07T08:04:50.284Z,100140.00
2022-11-07T08:07:18.212Z,100136.41
2022-11-07T08:09:46.241Z,100145.19
2022-11-07T08:12:14.190Z,100143.34
2022-11-07T08:14:42.529Z,100136.16
2022-11-07T08:17:17.141Z,100121.38
2022-11-07T08:19:48.337Z,100138.50
2022-11-07T08:22:23.781Z,100110.88
2022-11-07T08:24:52.271Z,100131.84
2022-11-07T08:27:20.135Z,100130.84
2022-11-07T08:29:49.291Z,100131.72
2022-11-07T08:32:17.210Z,100140.78
2022-11-07T08:34:45.085Z,100139.69
2022-11-07T08:37:13.063Z,100128.22
2022-11-07T08:39:42.356Z,100135.44
2022-11-07T08:42:10.272Z,100126.34
2022-11-07T08:44:38.204Z,100126.84
2022-11-07T08:47:08.641Z,100136.50
2022-11-07T08:49:36.674Z,100139.03
2022-11-07T08:52:04.921Z,100138.09
2022-11-07T08:54:33.698Z,100136.13
2022-11-07T08:57:03.178Z,100138.09
2022-11-07T08:59:31.140Z,100132.84
2022-11-07T09:04:47.000Z,100139.59
2022-11-07T09:07:14.955Z,100130.69
2022-11-07T09:09:42.800Z,100137.50
2022-11-07T09:12:12.016Z,100125.09
2022-11-07T09:14:40.380Z,100149.50
2022-11-07T09:17:08.334Z,100135.97
2022-11-07T09:19:36.197Z,100139.50
2022-11-07T09:22:04.071Z,100109.59
2022-11-07T09:24:31.990Z,100143.78
2022-11-07T09:26:59.877Z,100140.00
2022-11-07T09:29:29.116Z,100142.47
2022-11-07T09:31:57.059Z,100149.28
2022-11-07T09:34:25.891Z,100151.28
2022-11-07T09:36:53.756Z,100146.31
2022-11-07T09:39:21.723Z,100145.69
2022-11-07T09:41:55.585Z,100151.31
2022-11-07T09:44:47.404Z,100148.53
2022-11-07T09:47:20.775Z,100142.56
2022-11-07T09:49:49.830Z,100137.78
2022-11-07T09:52:20.287Z,100126.44
2022-11-07T09:54:51.622Z,100134.00
2022-11-07T09:57:20.211Z,100143.66
2022-11-07T09:59:51.757Z,100144.25
2022-11-07T10:02:20.543Z,100145.09
2022-11-07T10:04:48.885Z,100144.88
2022-11-07T10:07:21.610Z,100140.81
2022-11-07T10:09:51.571Z,100143.03
2022-11-07T10:12:27.810Z,100111.41
2022-11-07T10:15:00.633Z,100140.06
2022-11-07T10:17:32.955Z,100128.75
2022-11-07T10:20:09.303Z,100121.63
2022-11-07T10:22:46.995Z,100122.44
2022-11-07T10:25:20.751Z,100094.16
2022-11-07T10:27:52.017Z,100120.09
2022-11-07T10:30:22.013Z,100121.09
2022-11-07T10:32:55.845Z,100109.22
2022-11-07T10:35:26.779Z,100119.84
2022-11-07T10:37:58.039Z,100111.31
2022-11-07T10:40:28.250Z,100102.00
2022-11-07T10:42:56.868Z,100099.94
2022-11-07T10:45:26.216Z,100101.41
2022-11-07T10:47:58.413Z,100104.00
2022-11-07T10:50:26.788Z,100106.38
2022-11-07T10:52:55.696Z,100081.50
2022-11-07T10:55:23.644Z,100110.31
2022-11-07T10:57:54.225Z,100132.41
2022-11-07T11:00:23.798Z,100135.38
2022-11-07T11:02:53.358Z,100125.59
2022-11-07T11:05:23.620Z,100130.22
2022-11-07T11:07:51.641Z,100129.94
2022-11-07T11:10:21.048Z,100130.69
2022-11-07T11:12:49.324Z,100126.50
2022-11-07T11:15:19.260Z,100114.66
2022-11-07T11:17:47.191Z,100119.78
2022-11-07T11:20:31.151Z,100098.19
2022-11-07T11:22:59.716Z,100095.00
2022-11-07T11:25:27.705Z,100095.41
2022-11-07T11:27:58.020Z,100073.53
2022-11-07T11:30:25.993Z,100093.47
2022-11-07T11:32:54.608Z,100082.81
2022-11-07T11:35:38.879Z,100079.31
2022-11-07T11:38:12.803Z,100076.41
2022-11-07T11:40:41.523Z,100073.94
2022-11-07T11:43:18.365Z,100074.69
2022-11-07T11:45:55.847Z,100070.53
2022-11-07T11:48:25.631Z,100073.84
2022-11-07T11:50:57.262Z,100067.50
2022-11-07T11:53:25.359Z,100071.31
2022-11-07T11:55:57.324Z,100058.72
2022-11-07T11:58:32.865Z,100067.63
2022-11-07T12:01:02.900Z,100059.06
2022-11-07T12:03:45.211Z,100057.97
2022-11-07T12:06:16.890Z,100062.75
2022-11-07T12:09:17.119Z,100042.84
2022-11-07T12:11:55.948Z,100043.69
2022-11-07T12:14:43.195Z,100055.63
2022-11-07T12:17:12.540Z,100047.19
2022-11-07T12:19:44.025Z,100043.28
2022-11-07T12:22:15.853Z,100036.56
2022-11-07T12:24:46.945Z,100025.59
2022-11-07T12:27:22.728Z,100028.00
2022-11-07T12:30:04.669Z,100028.00
2022-11-07T12:32:36.836Z,100032.13
2022-11-07T12:35:12.741Z,100019.31
2022-11-07T12:37:52.572Z,100004.69
2022-11-07T12:40:30.231Z,100025.25
2022-11-07T12:43:07.354Z,100029.72
2022-11-07T12:45:44.427Z,100018.81
2022-11-07T12:48:22.219Z,100021.28
2022-11-07T12:50:52.725Z,100021.84
2022-11-07T12:53:28.542Z,100020.50
2022-11-07T12:55:58.555Z,100013.88
2022-11-07T12:58:29.059Z,100019.00
2022-11-07T13:00:56.959Z,100005.44
2022-11-07T13:03:54.599Z,100004.44
2022-11-07T13:06:25.183Z,99982.09
2022-11-07T13:08:58.583Z,99983.94
2022-11-07T13:11:30.206Z,99990.75
2022-11-07T13:14:06.368Z,99974.69
2022-11-07T13:16:35.759Z,99998.41
2022-11-07T13:19:10.068Z,99987.41
2022-11-07T13:21:42.447Z,99995.91
2022-11-07T13:24:20.122Z,99979.28
2022-11-07T13:26:48.355Z,99977.88
2022-11-07T13:29:24.901Z,99964.06
2022-11-07T13:32:05.552Z,99962.53
2022-11-07T13:34:40.866Z,99969.81
2022-11-07T13:37:10.054Z,99977.66
2022-11-07T13:39:39.301Z,99969.41
2022-11-07T13:42:07.219Z,99969.00
2022-11-07T13:44:36.852Z,99958.34
2022-11-07T13:47:05.768Z,99967.03
2022-11-07T13:49:36.829Z,99963.47
2022-11-07T13:52:10.264Z,99949.41
2022-11-07T13:54:41.455Z,99943.88
2022-11-07T13:57:12.578Z,99922.44
2022-11-07T13:59:47.254Z,99924.09
2022-11-07T14:02:21.509Z,99918.00
2022-11-07T14:05:15.224Z,99926.63
2022-11-07T14:07:43.149Z,99908.75
2022-11-07T14:10:17.974Z,99922.66
2022-11-07T14:12:45.931Z,99927.03
2022-11-07T14:15:15.281Z,99920.53
2022-11-07T14:17:43.352Z,99921.53
2022-11-07T14:20:17.015Z,99916.28
2022-11-07T14:22:53.118Z,99918.09
2022-11-07T14:25:25.372Z,99914.31
2022-11-07T14:27:53.319Z,99913.19
2022-11-07T14:30:21.775Z,99911.09
2022-11-07T14:32:50.909Z,99922.81
2022-11-07T14:35:23.292Z,99898.94
2022-11-07T14:37:52.607Z,99892.75
2022-11-07T14:40:20.553Z,99901.00
2022-11-07T14:42:49.818Z,99910.53
2022-11-07T14:45:39.241Z,99885.72
2022-11-07T14:48:07.360Z,99878.50
2022-11-07T14:50:35.257Z,99888.81
2022-11-07T14:53:04.111Z,99874.06
2022-11-07T14:55:32.772Z,99882.00
2022-11-07T14:58:02.776Z,99878.75
2022-11-07T15:00:30.849Z,99876.13
2022-11-07T15:02:59.366Z,99881.50
2022-11-07T15:05:28.663Z,99867.75
2022-11-07T15:07:57.256Z,99877.06
2022-11-07T15:10:27.835Z,99858.31
2022-11-07T15:12:56.736Z,99853.81
2022-11-07T15:15:26.447Z,99869.09
2022-11-07T15:17:59.017Z,99862.03
2022-11-07T15:20:34.310Z,99861.41
2022-11-07T15:23:03.168Z,99860.00
2022-11-07T15:25:34.497Z,99851.44
2022-11-07T15:28:13.863Z,99850.22
2022-11-07T15:30:44.201Z,99838.56
2022-11-07T15:33:13.008Z,99840.75
2022-11-07T15:35:44.425Z,99838.53
2022-11-07T15:38:18.315Z,99849.09
2022-11-07T15:40:46.624Z,99848.69
2022-11-07T15:43:14.546Z,99847.00
2022-11-07T15:45:44.045Z,99832.44
2022-11-07T15:48:15.991Z,99815.75
2022-11-07T15:50:44.642Z,99827.34
2022-11-07T15:53:17.018Z,99820.88
2022-11-07T15:55:44.972Z,99815.13
2022-11-07T15:58:15.053Z,99816.81
2022-11-07T16:00:44.594Z,99815.56
2022-11-07T16:03:15.423Z,99808.28
2022-11-07T16:05:45.491Z,99801.53
2022-11-07T16:08:15.508Z,99803.09
2022-11-07T16:10:44.931Z,99803.81
2022-11-07T16:13:12.836Z,99790.88
2022-11-07T16:15:40.752Z,99785.34
2022-11-07T16:18:16.138Z,99784.00
2022-11-07T16:20:44.390Z,99776.53
2022-11-07T16:23:12.484Z,99773.84
2022-11-07T16:25:41.000Z,99772.59
2022-11-07T16:28:19.190Z,99781.03
2022-11-07T16:30:47.287Z,99791.28
2022-11-07T16:33:16.661Z,99777.84
2022-11-07T16:35:44.646Z,99767.94
2022-11-07T16:38:14.138Z,99766.81
2022-11-07T16:40:42.409Z,99768.53
2022-11-07T16:43:10.310Z,99764.84
2022-11-07T16:45:38.635Z,99762.69
2022-11-07T16:48:06.934Z,99783.78
2022-11-07T16:50:36.177Z,99759.75
2022-11-07T16:53:04.582Z,99753.31
2022-11-07T16:55:32.651Z,99755.03
2022-11-07T16:58:00.643Z,99753.94
2022-11-07T17:00:28.515Z,99754.19
2022-11-07T17:03:07.128Z,99747.94
2022-11-07T17:05:36.411Z,99740.44
2022-11-07T17:08:05.321Z,99738.88
2022-11-07T17:10:33.233Z,99734.25
2022-11-07T17:13:01.100Z,99748.78
2022-11-07T17:15:29.001Z,99751.47
2022-11-07T17:18:00.598Z,99745.94
2022-11-07T17:20:50.547Z,99728.72
2022-11-07T17:23:25.248Z,99726.63
2022-11-07T17:25:57.086Z,99711.38
2022-11-07T17:28:24.996Z,99708.28
2022-11-07T17:30:53.080Z,99709.00
2022-11-07T17:33:21.035Z,99704.34
2022-11-07T17:35:48.929Z,99704.09
2022-11-07T17:38:17.674Z,99704.19
2022-11-07T17:40:47.273Z,99688.69
2022-11-07T17:43:15.167Z,99687.97
2022-11-07T17:45:43.050Z,99691.69
2022-11-07T17:48:11.103Z,99698.88
2022-11-07T17:50:39.831Z,99683.09
2022-11-07T17:53:07.696Z,99674.31
2022-11-07T17:55:35.772Z,99674.06
2022-11-07T17:58:05.053Z,99685.06
2022-11-07T18:00:32.899Z,99674.16
2022-11-07T18:03:00.943Z,99669.78
2022-11-07T18:05:33.432Z,99646.28
2022-11-07T18:08:02.587Z,99638.06
2022-11-07T18:10:30.534Z,99665.00
2022-11-07T18:12:58.810Z,99661.44
2022-11-07T18:15:28.306Z,99656.69
2022-11-07T18:17:56.229Z,99654.25
2022-11-07T18:20:24.191Z,99663.47
2022-11-07T18:22:52.127Z,99647.13
2022-11-07T18:25:19.983Z,99633.53
2022-11-07T18:27:47.911Z,99630.59
2022-11-07T18:30:15.868Z,99607.25
2022-11-07T18:32:45.349Z,99612.59
2022-11-07T18:35:13.290Z,99614.06
2022-11-07T18:37:41.362Z,99613.19
2022-11-07T18:40:11.628Z,99588.81
2022-11-07T18:42:39.546Z,99613.06
2022-11-07T18:45:08.818Z,99591.97
2022-11-07T18:47:36.941Z,99605.50
2022-11-07T18:50:11.209Z,99600.22
2022-11-07T18:52:39.168Z,99620.59
2022-11-07T18:55:09.580Z,99622.41
2022-11-07T18:57:39.235Z,99636.72
2022-11-07T19:00:13.439Z,99615.78
2022-11-07T19:02:44.901Z,99606.63
2022-11-07T19:05:14.217Z,99606.13
2022-11-07T19:07:44.828Z,99591.13
2022-11-07T19:10:13.029Z,99591.97
2022-11-07T19:12:40.964Z,99561.72
2022-11-07T19:15:10.135Z,99564.53
2022-11-07T19:17:41.921Z,99555.06
2022-11-07T19:20:11.636Z,99547.88
2022-11-07T19:22:41.197Z,99557.06
2022-11-07T19:25:10.219Z,99556.22
2022-11-07T19:27:38.279Z,99540.78
2022-11-07T19:30:08.320Z,99548.00
2022-11-07T19:32:36.439Z,99538.69
2022-11-07T19:35:07.036Z,99524.97
2022-11-07T19:37:35.127Z,99521.72
2022-11-07T19:40:04.757Z,99515.50
2022-11-07T19:42:32.648Z,99506.31
2022-11-07T19:45:01.647Z,99502.59
2022-11-07T19:47:30.819Z,99498.66
2022-11-07T19:49:58.733Z,99506.31
2022-11-07T19:52:26.818Z,99482.38
2022-11-07T19:54:55.085Z,99484.09
2022-11-07T19:57:24.350Z,99480.41
2022-11-07T19:59:52.920Z,99446.75
2022-11-07T20:02:41.516Z,99453.25
2022-11-07T20:05:09.538Z,99449.31
2022-11-07T20:07:37.447Z,99492.59
2022-11-07T20:10:05.924Z,99449.16
2022-11-07T20:12:35.707Z,99427.25
2022-11-07T20:15:03.620Z,99441.38
2022-11-07T20:17:31.521Z,99412.94
2022-11-07T20:20:04.396Z,99421.28
2022-11-07T20:22:34.312Z,99406.88
2022-11-07T20:25:02.404Z,99393.00
2022-11-07T20:27:30.336Z,99395.41
2022-11-07T20:29:59.644Z,99385.38
2022-11-07T20:32:27.779Z,99377.44
2022-11-07T20:34:55.801Z,99382.09
2022-11-07T20:37:23.927Z,99366.03
2022-11-07T20:39:52.046Z,99368.41
2022-11-07T20:42:19.986Z,99373.50
2022-11-07T20:44:48.106Z,99373.38
2022-11-07T20:47:17.406Z,99372.97
2022-11-07T20:49:45.361Z,99377.06
2022-11-07T20:52:13.377Z,99382.97
2022-11-07T20:54:41.372Z,99369.84
2022-11-07T20:57:09.567Z,99377.47
2022-11-07T20:59:37.707Z,99383.13
2022-11-07T21:02:05.653Z,99371.94
2022-11-07T21:04:49.931Z,99367.00
2022-11-07T21:07:23.761Z,99365.06
2022-11-07T21:09:51.888Z,99356.16
2022-11-07T21:12:19.888Z,99367.84
2022-11-07T21:14:47.764Z,99363.19
2022-11-07T21:17:16.128Z,99373.50
2022-11-07T21:19:45.439Z,99371.53
2022-11-07T21:22:13.304Z,99373.09
2022-11-07T21:24:41.243Z,99367.84
2022-11-07T21:27:09.131Z,99374.59
2022-11-07T21:29:37.024Z,99373.88
2022-11-07T21:32:06.816Z,99360.03
2022-11-07T21:34:37.205Z,99344.03
2022-11-07T21:37:09.089Z,99338.50
2022-11-07T21:39:37.761Z,99341.75
2022-11-07T21:42:05.829Z,99351.63
2022-11-07T21:44:33.776Z,99340.44
2022-11-07T21:47:01.732Z,99356.94
2022-11-07T21:49:29.723Z,99344.78
2022-11-07T21:51:57.894Z,99354.81
2022-11-07T21:54:27.196Z,99349.72
2022-11-07T21:56:55.214Z,99351.69
2022-11-07T21:59:23.455Z,99380.75
2022-11-07T22:01:51.515Z,99373.53
2022-11-07T22:04:19.519Z,99360.66
2022-11-07T22:06:47.495Z,99368.72
2022-11-07T22:09:16.196Z,99369.06
2022-11-07T22:11:45.477Z,99372.72
2022-11-07T22:14:14.755Z,99371.31
2022-11-07T22:16:42.834Z,99366.44
2022-11-07T22:19:12.738Z,99387.31
2022-11-07T22:21:41.175Z,99392.81
2022-11-07T22:24:09.365Z,99383.03
2022-11-07T22:26:37.439Z,99420.28
2022-11-07T22:29:06.718Z,99417.13
2022-11-07T22:31:34.640Z,99428.78
2022-11-07T22:34:02.599Z,99431.28
2022-11-07T22:36:30.666Z,99440.25
2022-11-07T22:38:58.646Z,99457.16
2022-11-07T22:41:27.381Z,99455.81
2022-11-07T22:43:55.338Z,99428.69
2022-11-07T22:46:25.641Z,99428.06
2022-11-07T22:48:53.540Z,99444.31
2022-11-07T22:51:23.002Z,99415.44
2022-11-07T22:53:56.458Z,99443.75
2022-11-07T22:56:24.564Z,99439.00
2022-11-07T22:58:52.417Z,99430.47
2022-11-07T23:01:21.442Z,99444.91
2022-11-07T23:03:50.826Z,99434.34
2022-11-07T23:06:18.895Z,99429.25
2022-11-07T23:08:46.791Z,99399.03
2022-11-07T23:14:04.791Z,99433.53
2022-11-07T23:16:33.854Z,99426.38
2022-11-07T23:19:03.827Z,99411.94
2022-11-07T23:21:31.781Z,99404.44
2022-11-07T23:24:00.606Z,99405.09
2022-11-07T23:26:33.913Z,99404.13
2022-11-07T23:29:07.537Z,99401.09
2022-11-07T23:31:38.818Z,99387.13
2022-11-07T23:34:08.052Z,99402.44
2022-11-07T23:36:36.044Z,99403.28
2022-11-07T23:39:05.837Z,99365.84
2022-11-07T23:41:33.738Z,99400.97
2022-11-07T23:44:01.803Z,99386.91
2022-11-07T23:46:47.075Z,99386.19
2022-11-07T23:49:33.579Z,99373.19
2022-11-07T23:52:01.522Z,99366.09
2022-11-07T23:54:46.663Z,99378.28
2022-11-07T23:57:14.543Z,99364.84
2022-11-07T23:59:59.933Z,99382.78
